Time,TemperatureF,DewpointF,PressureIn,WindDirection,WindDirectionDegrees,WindSpeedMPH,WindSpeedGustMPH,Humidity,HourlyPrecipIn,Conditions,Clouds,dailyrainin,SoftwareType,DateUTC
2013-03-17 00:09:00,54.6,46.0,30.00,WSW,239,0.0,-999.0,74,-99.99,,,0.00,weatherlink.com 1.10,2013-03-17 05:09:00,
2013-03-17 00:22:00,53.5,46.0,30.00,WSW,239,0.0,-999.0,76,-99.99,,,0.00,weatherlink.com 1.10,2013-03-17 05:22:00,
2013-03-17 00:37:00,53.6,46.0,30.00,WSW,239,0.0,-999.0,75,-99.99,,,0.00,weatherlink.com 1.10,2013-03-17 05:37:00,
2013-03-17 00:52:00,53.5,46.0,30.00,WSW,239,0.0,-999.0,75,-99.99,,,0.00,weatherlink.com 1.10,2013-03-17 05:52:00,
2013-03-17 01:07:00,52.4,46.0,30.00,WSW,239,0.0,-999.0,78,-99.99,,,0.00,weatherlink.com 1.10,2013-03-17 06:07:00,
2013-03-17 01:22:00,55.2,47.0,30.00,WSW,239,2.0,-999.0,73,-99.99,,,0.00,weatherlink.com 1.10,2013-03-17 06:22:00,
2013-03-17 01:37:00,56.8,47.0,30.00,WSW,239,2.0,-999.0,69,-99.99,,,0.00,weatherlink.com 1.10,2013-03-17 06:37:00,
2013-03-17 01:52:00,57.0,46.0,30.01,WSW,239,2.0,-999.0,68,-99.99,,,0.00,weatherlink.com 1.10,2013-03-17 06:52:00,
2013-03-17 02:07:00,56.6,46.0,30.00,WSW,239,4.0,-999.0,69,-99.99,,,0.00,weatherlink.com 1.10,2013-03-17 07:07:00,
2013-03-17 02:22:00,56.6,47.0,30.00,WSW,247,6.0,-999.0,71,-99.99,,,0.00,weatherlink.com 1.10,2013-03-17 07:22:00,
2013-03-17 02:37:00,56.4,47.0,30.00,WSW,254,3.0,-999.0,72,-99.99,,,0.00,weatherlink.com 1.10,2013-03-17 07:37:00,
2013-03-17 02:52:00,55.7,48.0,30.00,WSW,249,3.0,-999.0,74,-99.99,,,0.00,weatherlink.com 1.10,2013-03-17 07:52:00,
2013-03-17 03:07:00,55.5,48.0,30.00,WSW,250,5.0,-999.0,76,-99.99,,,0.00,weatherlink.com 1.10,2013-03-17 08:07:00,
2013-03-17 03:22:00,55.5,48.0,30.00,WSW,250,5.0,-999.0,77,-99.99,,,0.00,weatherlink.com 1.10,2013-03-17 08:22:00,
2013-03-17 03:37:00,55.6,49.0,30.00,WSW,248,4.0,-999.0,78,-99.99,,,0.00,weatherlink.com 1.10,2013-03-17 08:37:00,
2013-03-17 03:52:00,55.2,49.0,29.99,WSW,258,3.0,-999.0,79,-99.99,,,0.00,weatherlink.com 1.10,2013-03-17 08:52:00,
2013-03-17 04:07:00,55.0,49.0,30.00,WSW,258,0.0,-999.0,80,-99.99,,,0.00,weatherlink.com 1.10,2013-03-17 09:07:00,
2013-03-17 04:22:00,54.7,49.0,30.00,West,260,4.0,-999.0,82,-99.99,,,0.00,weatherlink.com 1.10,2013-03-17 09:22:00,
2013-03-17 04:37:00,54.7,49.0,30.00,WSW,252,4.0,-999.0,82,-99.99,,,0.00,weatherlink.com 1.10,2013-03-17 09:37:00,
2013-03-17 04:52:00,54.6,50.0,29.99,WSW,253,2.0,-999.0,83,-99.99,,,0.00,weatherlink.com 1.10,2013-03-17 09:52:00,
2013-03-17 05:07:00,54.6,50.0,29.99,WSW,250,4.0,-999.0,84,-99.99,,,0.00,weatherlink.com 1.10,2013-03-17 10:07:00,
2013-03-17 05:23:00,54.4,50.0,30.00,WSW,242,3.0,-999.0,85,-99.99,,,0.00,weatherlink.com 1.10,2013-03-17 10:23:00,
2013-03-17 05:38:00,54.0,50.0,30.01,WSW,242,4.0,-999.0,86,-99.99,,,0.00,weatherlink.com 1.10,2013-03-17 10:38:00,
2013-03-17 05:53:00,54.0,50.0,30.01,WSW,242,3.0,-999.0,87,-99.99,,,0.00,weatherlink.com 1.10,2013-03-17 10:53:00,
2013-03-17 06:08:00,53.8,50.0,30.02,WSW,239,5.0,-999.0,87,-99.99,,,0.00,weatherlink.com 1.10,2013-03-17 11:08:00,
2013-03-17 06:23:00,53.7,50.0,30.02,WSW,238,4.0,-999.0,88,-99.99,,,0.00,weatherlink.com 1.10,2013-03-17 11:23:00,
2013-03-17 06:38:00,53.4,50.0,30.02,WSW,238,4.0,-999.0,89,-99.99,,,0.00,weatherlink.com 1.10,2013-03-17 11:38:00,
2013-03-17 06:53:00,53.2,50.0,30.02,WSW,238,4.0,-999.0,89,-99.99,,,0.00,weatherlink.com 1.10,2013-03-17 11:53:00,
2013-03-17 07:08:00,53.0,50.0,30.02,WSW,238,2.0,-999.0,90,-99.99,,,0.00,weatherlink.com 1.10,2013-03-17 12:08:00,
2013-03-17 07:23:00,53.1,51.0,30.03,WSW,248,1.0,-999.0,91,-99.99,,,0.00,weatherlink.com 1.10,2013-03-17 12:23:00,
2013-03-17 07:38:00,53.6,51.0,30.03,SW,229,3.0,-999.0,91,-99.99,,,0.00,weatherlink.com 1.10,2013-03-17 12:38:00,
2013-03-17 07:53:00,54.4,52.0,30.03,SW,236,6.0,-999.0,91,-99.99,,,0.00,weatherlink.com 1.10,2013-03-17 12:53:00,
2013-03-17 08:08:00,55.1,52.0,30.04,SW,232,7.0,-999.0,90,-99.99,,,0.00,weatherlink.com 1.10,2013-03-17 13:08:00,
2013-03-17 08:23:00,55.9,53.0,30.04,SW,225,8.0,-999.0,90,-99.99,,,0.00,weatherlink.com 1.10,2013-03-17 13:23:00,
2013-03-17 08:38:00,56.0,53.0,30.05,SW,235,7.0,-999.0,89,-99.99,,,0.00,weatherlink.com 1.10,2013-03-17 13:38:00,
2013-03-17 08:53:00,56.4,53.0,30.05,WSW,250,5.0,-999.0,89,-99.99,,,0.00,weatherlink.com 1.10,2013-03-17 13:53:00,
2013-03-17 09:08:00,56.9,54.0,30.05,West,263,5.0,-999.0,89,-99.99,,,0.00,weatherlink.com 1.10,2013-03-17 14:08:00,
2013-03-17 09:23:00,57.5,54.0,30.05,West,262,6.0,-999.0,87,-99.99,,,0.00,weatherlink.com 1.10,2013-03-17 14:23:00,
2013-03-17 09:38:00,58.2,54.0,30.05,WSW,246,7.0,-999.0,86,-99.99,,,0.00,weatherlink.com 1.10,2013-03-17 14:38:00,
2013-03-17 09:53:00,59.1,55.0,30.05,WSW,240,6.0,-999.0,85,-99.99,,,0.00,weatherlink.com 1.10,2013-03-17 14:53:00,
2013-03-17 10:08:00,60.4,55.0,30.05,WSW,238,5.0,-999.0,82,-99.99,,,0.00,weatherlink.com 1.10,2013-03-17 15:08:00,
2013-03-17 10:23:00,61.0,55.0,30.04,WSW,242,4.0,-999.0,81,-99.99,,,0.00,weatherlink.com 1.10,2013-03-17 15:23:00,
2013-03-17 10:38:00,61.9,55.0,30.04,SW,230,3.0,-999.0,78,-99.99,,,0.00,weatherlink.com 1.10,2013-03-17 15:38:00,
2013-03-17 10:53:00,62.4,54.0,30.04,WSW,248,6.0,-999.0,75,-99.99,,,0.00,weatherlink.com 1.10,2013-03-17 15:53:00,
2013-03-17 11:08:00,63.2,54.0,30.04,West,270,8.0,-999.0,72,-99.99,,,0.00,weatherlink.com 1.10,2013-03-17 16:08:00,
2013-03-17 11:23:00,63.7,55.0,30.03,SW,231,8.0,-999.0,72,-99.99,,,0.00,weatherlink.com 1.10,2013-03-17 16:23:00,
2013-03-17 11:38:00,64.3,55.0,30.02,WSW,252,6.0,-999.0,71,-99.99,,,0.00,weatherlink.com 1.10,2013-03-17 16:38:00,
2013-03-17 11:53:00,64.1,55.0,30.02,SW,235,6.0,-999.0,71,-99.99,,,0.00,weatherlink.com 1.10,2013-03-17 16:53:00,
2013-03-17 12:08:00,64.7,54.0,30.01,WSW,243,7.0,-999.0,69,-99.99,,,0.00,weatherlink.com 1.10,2013-03-17 17:08:00,
2013-03-17 12:23:00,64.3,53.0,30.00,SSW,196,12.0,-999.0,68,-99.99,,,0.00,weatherlink.com 1.10,2013-03-17 17:23:00,
2013-03-17 12:38:00,64.7,53.0,30.01,WSW,238,16.0,-999.0,67,-99.99,,,0.00,weatherlink.com 1.10,2013-03-17 17:38:00,
2013-03-17 12:53:00,65.3,54.0,30.00,SW,215,9.0,-999.0,66,-99.99,,,0.00,weatherlink.com 1.10,2013-03-17 17:53:00,
2013-03-17 13:08:00,65.4,53.0,30.00,SW,227,12.0,-999.0,65,-99.99,,,0.00,weatherlink.com 1.10,2013-03-17 18:08:00,
2013-03-17 13:23:00,65.0,52.0,30.00,SW,220,13.0,-999.0,64,-99.99,,,0.00,weatherlink.com 1.10,2013-03-17 18:23:00,
2013-03-17 13:38:00,65.6,53.0,29.99,WSW,253,16.0,-999.0,65,-99.99,,,0.00,weatherlink.com 1.10,2013-03-17 18:38:00,
2013-03-17 13:53:00,65.3,53.0,29.98,WSW,248,5.0,-999.0,65,-99.99,,,0.00,weatherlink.com 1.10,2013-03-17 18:53:00,
2013-03-17 14:08:00,65.2,53.0,29.98,WSW,257,6.0,-999.0,66,-99.99,,,0.00,weatherlink.com 1.10,2013-03-17 19:08:00,
2013-03-17 14:23:00,65.4,53.0,29.97,WSW,247,11.0,-999.0,65,-99.99,,,0.00,weatherlink.com 1.10,2013-03-17 19:23:00,
2013-03-17 14:38:00,65.3,52.0,29.97,WSW,248,11.0,-999.0,63,-99.99,,,0.00,weatherlink.com 1.10,2013-03-17 19:38:00,
2013-03-17 14:53:00,65.5,52.0,29.96,WSW,247,9.0,-999.0,63,-99.99,,,0.00,weatherlink.com 1.10,2013-03-17 19:53:00,
2013-03-17 15:08:00,66.0,52.0,29.95,WSW,244,7.0,-999.0,61,-99.99,,,0.00,weatherlink.com 1.10,2013-03-17 20:08:00,
2013-03-17 15:23:00,66.5,52.0,29.95,SW,236,11.0,-999.0,61,-99.99,,,0.00,weatherlink.com 1.10,2013-03-17 20:23:00,
2013-03-17 15:38:00,66.4,53.0,29.95,WSW,254,12.0,-999.0,62,-99.99,,,0.00,weatherlink.com 1.10,2013-03-17 20:38:00,
2013-03-17 15:54:00,66.2,52.0,29.95,WSW,250,10.0,-999.0,61,-99.99,,,0.00,weatherlink.com 1.10,2013-03-17 20:54:00,
2013-03-17 16:09:00,67.1,53.0,29.94,SW,231,9.0,-999.0,60,-99.99,,,0.00,weatherlink.com 1.10,2013-03-17 21:09:00,
2013-03-17 16:24:00,66.3,52.0,29.94,WSW,239,3.0,-999.0,61,-99.99,,,0.00,weatherlink.com 1.10,2013-03-17 21:24:00,
2013-03-17 16:39:00,65.9,51.0,29.93,SW,230,4.0,-999.0,60,-99.99,,,0.00,weatherlink.com 1.10,2013-03-17 21:39:00,
2013-03-17 16:54:00,65.9,51.0,29.93,SW,227,1.0,-999.0,60,-99.99,,,0.00,weatherlink.com 1.10,2013-03-17 21:54:00,
2013-03-17 17:09:00,65.9,51.0,29.93,SW,224,5.0,-999.0,60,-99.99,,,0.00,weatherlink.com 1.10,2013-03-17 22:09:00,
2013-03-17 17:24:00,65.7,51.0,29.94,WSW,240,7.0,-999.0,60,-99.99,,,0.00,weatherlink.com 1.10,2013-03-17 22:24:00,
2013-03-17 17:39:00,66.2,52.0,29.93,SW,219,5.0,-999.0,60,-99.99,,,0.00,weatherlink.com 1.10,2013-03-17 22:39:00,
2013-03-17 17:54:00,66.3,51.0,29.93,SSW,208,7.0,-999.0,59,-99.99,,,0.00,weatherlink.com 1.10,2013-03-17 22:54:00,
2013-03-17 18:09:00,65.9,52.0,29.93,WSW,240,0.0,-999.0,61,-99.99,,,0.00,weatherlink.com 1.10,2013-03-17 23:09:00,
2013-03-17 18:24:00,65.2,52.0,29.93,SW,230,0.0,-999.0,62,-99.99,,,0.00,weatherlink.com 1.10,2013-03-17 23:24:00,
2013-03-17 18:39:00,65.2,52.0,29.93,SW,226,0.0,-999.0,63,-99.99,,,0.00,weatherlink.com 1.10,2013-03-17 23:39:00,
2013-03-17 18:54:00,64.4,52.0,29.94,SW,227,0.0,-999.0,64,-99.99,,,0.00,weatherlink.com 1.10,2013-03-17 23:54:00,
2013-03-17 19:24:00,62.5,51.0,29.93,SW,225,0.0,-999.0,66,-99.99,,,0.00,weatherlink.com 1.10,2013-03-18 00:24:00,
2013-03-17 19:39:00,61.5,51.0,29.93,SW,219,0.0,-999.0,68,-99.99,,,0.00,weatherlink.com 1.10,2013-03-18 00:39:00,
2013-03-17 19:54:00,60.8,51.0,29.93,SW,219,0.0,-999.0,69,-99.99,,,0.00,weatherlink.com 1.10,2013-03-18 00:54:00,
2013-03-17 20:09:00,60.1,50.0,29.93,SW,219,0.0,-999.0,70,-99.99,,,0.00,weatherlink.com 1.10,2013-03-18 01:09:00,
2013-03-17 20:24:00,59.7,50.0,29.94,SW,219,0.0,-999.0,71,-99.99,,,0.00,weatherlink.com 1.10,2013-03-18 01:24:00,
2013-03-17 20:39:00,59.4,51.0,29.94,SW,214,0.0,-999.0,73,-99.99,,,0.00,weatherlink.com 1.10,2013-03-18 01:39:00,
2013-03-17 20:54:00,59.7,51.0,29.94,South,182,0.0,-999.0,73,-99.99,,,0.00,weatherlink.com 1.10,2013-03-18 01:54:00,
2013-03-17 21:09:00,59.6,51.0,29.95,SW,214,0.0,-999.0,74,-99.99,,,0.00,weatherlink.com 1.10,2013-03-18 02:09:00,
2013-03-17 21:24:00,59.1,51.0,29.95,SSW,194,0.0,-999.0,75,-99.99,,,0.00,weatherlink.com 1.10,2013-03-18 02:24:00,
2013-03-17 21:39:00,59.5,52.0,29.95,SSE,159,0.0,-999.0,76,-99.99,,,0.00,weatherlink.com 1.10,2013-03-18 02:39:00,
2013-03-17 21:54:00,59.5,52.0,29.95,South,186,0.0,-999.0,77,-99.99,,,0.00,weatherlink.com 1.10,2013-03-18 02:54:00,
2013-03-17 22:09:00,59.9,53.0,29.96,SSW,207,0.0,-999.0,78,-99.99,,,0.00,weatherlink.com 1.10,2013-03-18 03:09:00,
2013-03-17 22:24:00,60.2,54.0,29.96,SW,221,4.0,-999.0,79,-99.99,,,0.00,weatherlink.com 1.10,2013-03-18 03:24:00,
2013-03-17 22:54:00,60.1,54.0,29.95,SSW,206,0.0,-999.0,81,-99.99,,,0.00,weatherlink.com 1.10,2013-03-18 03:54:00,
2013-03-17 23:09:00,59.6,54.0,29.95,SSW,206,0.0,-999.0,82,-99.99,,,0.00,weatherlink.com 1.10,2013-03-18 04:09:00,
2013-03-17 23:24:00,59.0,54.0,29.95,SSW,206,0.0,-999.0,83,-99.99,,,0.00,weatherlink.com 1.10,2013-03-18 04:24:00,
2013-03-17 23:39:00,58.8,54.0,29.94,SSW,206,0.0,-999.0,84,-99.99,,,0.00,weatherlink.com 1.10,2013-03-18 04:39:00,
2013-03-17 23:54:00,58.9,54.0,29.94,SSW,200,0.0,-999.0,84,-99.99,,,0.00,weatherlink.com 1.10,2013-03-18 04:54:00,